Maple Grove, Washington
Current Conditions -  °F | °C
As of 9:53 PM on Saturday 22 Nov 2014 (Local Time) from KCLM Reporting Station
Light Rain Light Rain  
Wind Chill: 43°   Ceiling: 5000
Heat Index: 46°   Visibility: 10mi
Dew Point: 39°   Wind: 6mph
Humidity: 76%   Direction: 240°WSW
Pressure: 30.07"   Gusts: NA
Location:  48.0203°N, 123.478°W
Report Text: KCLM 230553Z AUTO 24005KT 10SM -RA OVC050 08/04 A3007 RMK AO2 RAB0457 SLP183 P0000 60003 T00780039 10094 20072 53017 $
Loading
Personal Weather Stations






























Interactive Weather Map New forecast layout! Learn more

10-Day Weather Forecast

Advertisements
Track Severe Weather on mobile